createdAt,value
2023-05-01T00:00:43.284Z,58.91
2023-05-01T00:01:43.206Z,59.11
2023-05-01T00:02:43.296Z,59.01
2023-05-01T00:03:43.431Z,58.91
2023-05-01T00:04:43.236Z,59.11
2023-05-01T00:05:43.218Z,59.01
2023-05-01T00:06:43.249Z,58.91
2023-05-01T00:07:43.156Z,58.80
2023-05-01T00:08:43.147Z,58.80
2023-05-01T00:09:43.302Z,58.80
2023-05-01T00:10:43.147Z,58.80
2023-05-01T00:11:43.154Z,59.01
2023-05-01T00:12:43.083Z,59.01
2023-05-01T00:13:43.095Z,58.91
2023-05-01T00:14:43.122Z,58.80
2023-05-01T00:15:43.202Z,58.70
2023-05-01T00:16:43.219Z,58.70
2023-05-01T00:17:43.118Z,58.80
2023-05-01T00:18:43.053Z,58.80
2023-05-01T00:19:43.078Z,58.80
2023-05-01T00:20:43.025Z,58.70
2023-05-01T00:21:43.075Z,58.80
2023-05-01T00:22:42.981Z,58.80
2023-05-01T00:23:43.031Z,58.70
2023-05-01T00:24:43.253Z,58.70
2023-05-01T00:25:42.980Z,58.80
2023-05-01T00:26:42.970Z,58.70
2023-05-01T00:27:42.981Z,58.80
2023-05-01T00:28:42.965Z,58.50
2023-05-01T00:29:42.915Z,58.70
2023-05-01T00:30:42.915Z,58.70
2023-05-01T00:31:43.003Z,58.94
2023-05-01T00:32:42.899Z,59.14
2023-05-01T00:33:42.899Z,59.34
2023-05-01T00:34:43.059Z,59.34
2023-05-01T00:35:42.885Z,59.34
2023-05-01T00:36:42.879Z,59.14
2023-05-01T00:37:42.882Z,59.03
2023-05-01T00:38:42.842Z,59.14
2023-05-01T00:39:42.830Z,59.14
2023-05-01T00:40:42.827Z,59.24
2023-05-01T00:41:42.908Z,59.24
2023-05-01T00:42:42.817Z,59.24
2023-05-01T00:43:42.811Z,59.54
2023-05-01T00:44:42.801Z,59.44
2023-05-01T00:45:42.898Z,59.44
2023-05-01T00:46:42.741Z,59.54
2023-05-01T00:47:42.842Z,59.34
2023-05-01T00:48:42.730Z,59.54
2023-05-01T00:49:42.732Z,59.84
2023-05-01T00:50:42.733Z,59.75
2023-05-01T00:51:42.704Z,59.57
2023-05-01T00:52:42.707Z,59.88
2023-05-01T00:53:42.678Z,59.77
2023-05-01T00:54:42.689Z,59.77
2023-05-01T00:55:42.665Z,59.88
2023-05-01T00:56:42.638Z,59.67
2023-05-01T00:57:42.678Z,59.67
2023-05-01T00:58:42.645Z,59.67
2023-05-01T00:59:42.653Z,59.57
2023-05-01T01:00:42.898Z,59.47
2023-05-01T01:01:42.712Z,59.57
2023-05-01T01:02:42.694Z,59.47
2023-05-01T01:03:42.602Z,59.57
2023-05-01T01:04:42.719Z,59.57
2023-05-01T01:05:42.581Z,59.57
2023-05-01T01:06:42.743Z,59.67
2023-05-01T01:07:42.706Z,59.57
2023-05-01T01:08:42.561Z,59.47
2023-05-01T01:09:42.521Z,59.47
2023-05-01T01:10:42.556Z,59.67
2023-05-01T01:11:42.493Z,59.77
2023-05-01T01:12:42.484Z,59.67
2023-05-01T01:13:42.502Z,59.16
2023-05-01T01:14:42.486Z,59.27
2023-05-01T01:15:42.516Z,59.37
2023-05-01T01:16:42.483Z,59.27
2023-05-01T01:17:42.496Z,59.27
2023-05-01T01:18:42.466Z,59.37
2023-05-01T01:19:42.454Z,59.57
2023-05-01T01:20:42.441Z,59.57
2023-05-01T01:21:42.432Z,59.67
2023-05-01T01:22:42.427Z,59.70
2023-05-01T01:23:42.653Z,59.88
2023-05-01T01:24:42.375Z,60.00
2023-05-01T01:25:42.384Z,60.00
2023-05-01T01:26:42.358Z,60.00
2023-05-01T01:27:42.337Z,59.80
2023-05-01T01:28:42.382Z,59.80
2023-05-01T01:29:42.320Z,59.60
2023-05-01T01:30:42.391Z,59.57
2023-05-01T01:31:42.371Z,59.60
2023-05-01T01:32:42.423Z,59.80
2023-05-01T01:33:42.332Z,59.91
2023-05-01T01:34:42.266Z,60.00
2023-05-01T01:35:42.266Z,60.21
2023-05-01T01:36:42.248Z,60.31
2023-05-01T01:37:42.231Z,60.11
2023-05-01T01:38:42.267Z,60.21
2023-05-01T01:39:42.201Z,60.41
2023-05-01T01:40:42.230Z,60.41
2023-05-01T01:41:42.222Z,60.61
2023-05-01T01:42:42.198Z,60.72
2023-05-01T01:43:42.189Z,60.82
2023-05-01T01:44:42.157Z,60.95
2023-05-01T01:45:42.203Z,61.05
2023-05-01T01:46:42.304Z,60.75
2023-05-01T01:47:42.294Z,60.75
2023-05-01T01:48:42.134Z,60.64
2023-05-01T01:49:42.132Z,60.64
2023-05-01T01:50:42.143Z,60.44
2023-05-01T01:51:42.146Z,60.44
2023-05-01T01:52:42.118Z,60.44
2023-05-01T01:53:42.066Z,60.34
2023-05-01T01:54:42.086Z,60.44
2023-05-01T01:55:42.130Z,60.44
2023-05-01T01:56:42.108Z,60.44
2023-05-01T01:57:42.082Z,60.34
2023-05-01T01:58:42.028Z,60.34
2023-05-01T01:59:42.034Z,60.34
2023-05-01T02:00:42.031Z,60.54
2023-05-01T02:01:42.040Z,60.64
2023-05-01T02:02:42.147Z,60.54
2023-05-01T02:03:41.988Z,60.54
2023-05-01T02:04:41.999Z,60.75
2023-05-01T02:05:42.061Z,60.75
2023-05-01T02:06:41.989Z,60.75
2023-05-01T02:07:42.023Z,60.85
2023-05-01T02:08:41.952Z,60.85
2023-05-01T02:09:41.921Z,61.05
2023-05-01T02:10:41.913Z,61.08
2023-05-01T02:11:41.887Z,61.29
2023-05-01T02:12:41.880Z,61.18
2023-05-01T02:13:41.906Z,61.29
2023-05-01T02:14:41.934Z,61.38
2023-05-01T02:15:41.939Z,61.49
2023-05-01T02:16:42.012Z,61.59
2023-05-01T02:17:41.911Z,61.59
2023-05-01T02:18:41.865Z,61.59
2023-05-01T02:19:41.885Z,61.79
2023-05-01T02:20:41.810Z,61.59
2023-05-01T02:21:41.810Z,61.79
2023-05-01T02:22:41.787Z,61.69
2023-05-01T02:23:41.780Z,61.59
2023-05-01T02:24:41.785Z,61.49
2023-05-01T02:25:41.774Z,61.38
2023-05-01T02:26:41.779Z,61.59
2023-05-01T02:27:41.739Z,61.49
2023-05-01T02:28:41.732Z,60.98
2023-05-01T02:29:41.758Z,60.88
2023-05-01T02:30:41.819Z,61.08
2023-05-01T02:31:41.761Z,61.18
2023-05-01T02:32:41.711Z,61.31
2023-05-01T02:33:42.497Z,61.61
2023-05-01T02:34:41.675Z,61.72
2023-05-01T02:35:41.713Z,62.13
2023-05-01T02:36:41.665Z,61.82
2023-05-01T02:37:41.668Z,62.02
2023-05-01T02:38:41.616Z,62.02
2023-05-01T02:39:41.611Z,61.72
2023-05-01T02:40:41.643Z,61.93
2023-05-01T02:41:41.598Z,62.13
2023-05-01T02:42:41.628Z,61.72
2023-05-01T02:43:41.702Z,61.61
2023-05-01T02:44:41.600Z,61.72
2023-05-01T02:45:41.668Z,61.72
2023-05-01T02:46:41.606Z,61.93
2023-05-01T02:47:41.553Z,62.02
2023-05-01T02:48:41.573Z,62.13
2023-05-01T02:49:41.536Z,62.23
2023-05-01T02:50:41.535Z,62.13
2023-05-01T02:51:41.525Z,62.13
2023-05-01T02:52:41.473Z,62.13
2023-05-01T02:53:41.498Z,62.13
2023-05-01T02:54:41.479Z,62.02
2023-05-01T02:55:41.463Z,61.82
2023-05-01T02:56:41.524Z,61.93
2023-05-01T02:57:41.454Z,61.82
2023-05-01T02:58:41.442Z,61.82
2023-05-01T02:59:41.411Z,61.82
2023-05-01T03:00:41.418Z,62.02
2023-05-01T03:01:41.534Z,62.05
2023-05-01T03:02:41.430Z,62.02
2023-05-01T03:03:41.481Z,61.72
2023-05-01T03:04:41.418Z,61.72
2023-05-01T03:05:41.356Z,61.72
2023-05-01T03:06:41.568Z,61.41
2023-05-01T03:07:41.330Z,61.21
2023-05-01T03:08:41.338Z,61.41
2023-05-01T03:09:41.367Z,61.41
2023-05-01T03:10:41.314Z,61.52
2023-05-01T03:11:41.295Z,61.52
2023-05-01T03:12:41.313Z,61.31
2023-05-01T03:13:41.292Z,61.31
2023-05-01T03:14:41.331Z,61.61
2023-05-01T03:15:41.365Z,61.85
2023-05-01T03:16:41.321Z,62.16
2023-05-01T03:17:41.469Z,62.16
2023-05-01T03:18:41.234Z,62.05
2023-05-01T03:19:41.241Z,62.05
2023-05-01T03:20:41.244Z,62.05
2023-05-01T03:21:41.168Z,62.05
2023-05-01T03:22:41.187Z,61.95
2023-05-01T03:23:41.272Z,61.95
2023-05-01T03:24:41.173Z,61.85
2023-05-01T03:25:41.200Z,61.85
2023-05-01T03:26:41.137Z,61.85
2023-05-01T03:27:41.140Z,61.75
2023-05-01T03:28:41.108Z,61.82
2023-05-01T03:29:41.126Z,61.72
2023-05-01T03:30:41.135Z,61.72
2023-05-01T03:31:41.170Z,61.72
2023-05-01T03:32:41.075Z,61.93
2023-05-01T03:33:41.048Z,61.61
2023-05-01T03:34:41.017Z,61.61
2023-05-01T03:35:41.120Z,61.93
2023-05-01T03:36:41.056Z,61.93
2023-05-01T03:37:41.081Z,61.93
2023-05-01T03:38:41.014Z,61.82
2023-05-01T03:39:41.038Z,61.61
2023-05-01T03:40:40.967Z,61.61
2023-05-01T03:41:40.956Z,61.72
2023-05-01T03:42:40.951Z,61.95
2023-05-01T03:43:40.906Z,62.05
2023-05-01T03:44:40.959Z,61.75
2023-05-01T03:45:43.231Z,61.95
2023-05-01T03:46:41.539Z,61.75
2023-05-01T03:47:40.892Z,61.75
2023-05-01T03:48:40.867Z,61.75
2023-05-01T03:49:40.954Z,61.85
2023-05-01T03:50:40.840Z,61.82
2023-05-01T03:51:40.929Z,61.82
2023-05-01T03:52:40.854Z,61.61
2023-05-01T03:53:40.833Z,61.52
2023-05-01T03:54:40.824Z,61.72
2023-05-01T03:55:40.801Z,61.72
2023-05-01T03:56:40.854Z,61.72
2023-05-01T03:57:40.789Z,61.52
2023-05-01T03:58:40.755Z,61.31
2023-05-01T03:59:40.818Z,61.41
2023-05-01T04:00:40.806Z,61.52
2023-05-01T04:01:40.814Z,61.41
2023-05-01T04:02:40.805Z,61.41
2023-05-01T04:03:40.847Z,61.61
2023-05-01T04:04:40.938Z,61.41
2023-05-01T04:05:40.769Z,61.52
2023-05-01T04:06:40.842Z,61.72
2023-05-01T04:07:40.730Z,61.72
2023-05-01T04:08:40.684Z,61.95
2023-05-01T04:09:40.693Z,61.85
2023-05-01T04:10:40.690Z,61.85
2023-05-01T04:11:40.641Z,61.85
2023-05-01T04:12:40.675Z,61.93
2023-05-01T04:13:40.621Z,61.95
2023-05-01T04:14:40.605Z,62.05
2023-05-01T04:15:40.682Z,61.95
2023-05-01T04:16:40.760Z,62.02
2023-05-01T04:17:40.642Z,61.93
2023-05-01T04:18:40.625Z,61.72
2023-05-01T04:19:40.540Z,61.72
2023-05-01T04:20:40.568Z,61.72
2023-05-01T04:21:40.538Z,61.82
2023-05-01T04:22:40.553Z,61.82
2023-05-01T04:23:40.518Z,61.82
2023-05-01T04:24:40.528Z,61.82
2023-05-01T04:25:40.563Z,61.52
2023-05-01T04:26:40.504Z,61.52
2023-05-01T04:27:40.658Z,61.41
2023-05-01T04:28:40.485Z,61.41
2023-05-01T04:29:40.461Z,61.31
2023-05-01T04:30:40.487Z,61.18
2023-05-01T04:31:40.546Z,61.31
2023-05-01T04:32:40.450Z,61.41
2023-05-01T04:33:40.495Z,61.52
2023-05-01T04:34:40.414Z,61.72
2023-05-01T04:35:40.393Z,61.82
2023-05-01T04:36:40.501Z,61.93
2023-05-01T04:37:40.368Z,61.61
2023-05-01T04:38:40.448Z,61.61
2023-05-01T04:39:40.361Z,61.82
2023-05-01T04:40:40.495Z,61.82
2023-05-01T04:41:40.368Z,61.82
2023-05-01T04:42:40.344Z,61.82
2023-05-01T04:43:40.336Z,62.02
2023-05-01T04:44:40.355Z,62.02
2023-05-01T04:45:40.357Z,62.02
2023-05-01T04:46:40.340Z,61.93
2023-05-01T04:47:40.297Z,61.72
2023-05-01T04:48:40.252Z,61.52
2023-05-01T04:49:40.506Z,61.41
2023-05-01T04:50:40.235Z,61.41
2023-05-01T04:51:40.226Z,61.52
2023-05-01T04:52:40.296Z,61.31
2023-05-01T04:53:40.241Z,61.08
2023-05-01T04:54:40.220Z,61.21
2023-05-01T04:55:40.216Z,60.88
2023-05-01T04:56:40.178Z,60.98
2023-05-01T04:57:40.184Z,61.08
2023-05-01T04:58:40.154Z,60.88
2023-05-01T04:59:40.174Z,60.88
2023-05-01T05:00:40.155Z,60.77
2023-05-01T05:01:40.217Z,60.50
2023-05-01T05:02:40.226Z,60.70
2023-05-01T05:03:40.212Z,60.70
2023-05-01T05:04:40.132Z,60.91
2023-05-01T05:05:40.133Z,61.21
2023-05-01T05:06:40.127Z,61.00
2023-05-01T05:07:40.127Z,61.00
2023-05-01T05:08:40.093Z,61.00
2023-05-01T05:09:40.054Z,61.00
2023-05-01T05:10:40.075Z,60.80
2023-05-01T05:11:40.041Z,60.57
2023-05-01T05:12:40.061Z,60.80
2023-05-01T05:13:40.004Z,60.68
2023-05-01T05:14:40.002Z,60.80
2023-05-01T05:15:40.011Z,61.00
2023-05-01T05:16:40.079Z,61.18
2023-05-01T05:17:39.999Z,61.29
2023-05-01T05:18:39.960Z,61.08
2023-05-01T05:19:39.933Z,60.77
2023-05-01T05:20:39.917Z,61.08
2023-05-01T05:21:39.979Z,60.57
2023-05-01T05:22:39.937Z,60.37
2023-05-01T05:23:39.910Z,60.57
2023-05-01T05:24:39.923Z,60.68
2023-05-01T05:25:39.900Z,61.08
2023-05-01T05:26:39.941Z,60.77
2023-05-01T05:27:39.862Z,60.68
2023-05-01T05:28:39.888Z,60.44
2023-05-01T05:29:39.845Z,60.44
2023-05-01T05:30:39.856Z,60.37
2023-05-01T05:31:39.869Z,60.57
2023-05-01T05:32:39.843Z,60.88
2023-05-01T05:33:39.813Z,60.88
2023-05-01T05:34:39.822Z,60.98
2023-05-01T05:35:39.789Z,60.77
2023-05-01T05:36:39.822Z,60.68
2023-05-01T05:37:39.824Z,60.68
2023-05-01T05:38:39.795Z,60.54
2023-05-01T05:39:39.803Z,60.54
2023-05-01T05:40:39.763Z,60.14
2023-05-01T05:41:39.743Z,60.14
2023-05-01T05:42:39.716Z,60.14
2023-05-01T05:43:40.779Z,60.14
2023-05-01T05:44:39.704Z,60.03
2023-05-01T05:45:39.736Z,60.03
2023-05-01T05:46:39.710Z,59.80
2023-05-01T05:47:39.730Z,59.19
2023-05-01T05:48:39.689Z,59.19
2023-05-01T05:49:39.734Z,59.19
2023-05-01T05:50:39.659Z,59.09
2023-05-01T05:51:39.672Z,58.28
2023-05-01T05:52:39.617Z,57.97
2023-05-01T05:53:39.617Z,57.87
2023-05-01T05:54:39.604Z,57.77
2023-05-01T05:55:39.656Z,57.87
2023-05-01T05:56:39.588Z,57.43
2023-05-01T05:57:39.584Z,57.34
2023-05-01T05:58:39.621Z,57.23
2023-05-01T05:59:39.568Z,57.00
2023-05-01T06:00:39.534Z,56.70
2023-05-01T06:01:39.539Z,56.57
2023-05-01T06:02:39.682Z,56.47
2023-05-01T06:03:39.728Z,56.29
2023-05-01T06:04:39.559Z,56.39
2023-05-01T06:05:39.596Z,56.16
2023-05-01T06:06:39.536Z,55.96
2023-05-01T06:07:39.493Z,55.66
2023-05-01T06:08:39.500Z,55.73
2023-05-01T06:09:39.630Z,55.76
2023-05-01T06:10:39.441Z,55.53
2023-05-01T06:11:39.450Z,55.63
2023-05-01T06:12:44.677Z,55.43
2023-05-01T06:13:39.440Z,55.53
2023-05-01T06:14:39.553Z,55.02
2023-05-01T06:15:39.463Z,54.90
2023-05-01T06:16:39.416Z,54.49
2023-05-01T06:17:39.432Z,54.05
2023-05-01T06:18:39.363Z,53.55
2023-05-01T06:19:39.353Z,53.45
2023-05-01T06:20:39.342Z,53.85
2023-05-01T06:21:39.330Z,53.65
2023-05-01T06:22:39.410Z,53.25
2023-05-01T06:23:39.346Z,53.25
2023-05-01T06:24:39.299Z,53.67
2023-05-01T06:25:39.312Z,53.78
2023-05-01T06:26:39.347Z,53.88
2023-05-01T06:27:39.358Z,53.98
2023-05-01T06:28:39.425Z,53.78
2023-05-01T06:29:39.226Z,54.39
2023-05-01T06:30:39.358Z,54.39
2023-05-01T06:31:39.360Z,54.05
2023-05-01T06:32:39.264Z,53.55
2023-05-01T06:33:39.370Z,53.14
2023-05-01T06:34:39.220Z,53.14
2023-05-01T06:35:39.260Z,53.14
2023-05-01T06:36:39.351Z,53.12
2023-05-01T06:37:39.195Z,53.32
2023-05-01T06:38:39.300Z,53.22
2023-05-01T06:39:39.163Z,52.79
2023-05-01T06:40:39.123Z,52.48
2023-05-01T06:41:39.173Z,51.65
2023-05-01T06:42:39.186Z,50.82
2023-05-01T06:43:39.137Z,50.16
2023-05-01T06:44:39.086Z,49.43
2023-05-01T06:45:39.088Z,48.93
2023-05-01T06:46:39.202Z,48.82
2023-05-01T06:47:39.147Z,49.05
2023-05-01T06:48:39.113Z,49.55
2023-05-01T06:49:39.047Z,49.78
2023-05-01T06:50:39.036Z,49.98
2023-05-01T06:51:39.035Z,50.38
2023-05-01T06:52:39.081Z,50.59
2023-05-01T06:53:38.990Z,50.82
2023-05-01T06:54:39.008Z,51.22
2023-05-01T06:55:38.969Z,51.22
2023-05-01T06:56:38.981Z,50.82
2023-05-01T06:57:39.072Z,51.35
2023-05-01T06:58:38.976Z,51.55
2023-05-01T06:59:38.931Z,51.75
2023-05-01T07:00:39.031Z,50.94
2023-05-01T07:01:38.936Z,51.25
2023-05-01T07:02:39.082Z,51.55
2023-05-01T07:03:39.062Z,51.55
2023-05-01T07:04:38.909Z,51.75
2023-05-01T07:05:38.886Z,51.65
2023-05-01T07:06:38.905Z,51.55
2023-05-01T07:07:42.243Z,51.55
2023-05-01T07:08:38.901Z,51.55
2023-05-01T07:09:38.874Z,51.55
2023-05-01T07:10:41.776Z,51.45
2023-05-01T07:11:38.852Z,51.75
2023-05-01T07:12:39.471Z,51.75
2023-05-01T07:13:38.855Z,52.08
2023-05-01T07:14:38.792Z,52.39
2023-05-01T07:15:38.774Z,51.98
2023-05-01T07:16:38.888Z,52.18
2023-05-01T07:17:38.854Z,52.18
2023-05-01T07:18:38.768Z,52.28
2023-05-01T07:19:38.896Z,52.71
2023-05-01T07:20:38.781Z,53.34
2023-05-01T07:21:38.785Z,53.45
2023-05-01T07:22:38.739Z,53.67
2023-05-01T07:23:38.778Z,54.39
2023-05-01T07:24:38.771Z,54.59
2023-05-01T07:25:38.688Z,54.59
2023-05-01T07:26:38.682Z,54.59
2023-05-01T07:27:38.683Z,54.18
2023-05-01T07:28:38.716Z,54.39
2023-05-01T07:29:38.752Z,54.21
2023-05-01T07:30:38.649Z,54.61
2023-05-01T07:31:38.640Z,54.61
2023-05-01T07:32:38.649Z,54.59
2023-05-01T07:33:38.757Z,54.59
2023-05-01T07:34:38.660Z,54.39
2023-05-01T07:35:38.588Z,53.85
2023-05-01T07:36:38.724Z,53.65
2023-05-01T07:37:38.652Z,53.52
2023-05-01T07:38:38.576Z,53.32
2023-05-01T07:39:38.569Z,53.22
2023-05-01T07:40:38.640Z,53.09
2023-05-01T07:41:38.537Z,53.19
2023-05-01T07:42:38.548Z,52.99
2023-05-01T07:43:38.550Z,52.99
2023-05-01T07:44:38.543Z,53.19
2023-05-01T07:45:38.533Z,52.99
2023-05-01T07:46:38.780Z,52.79
2023-05-01T07:47:38.520Z,52.59
2023-05-01T07:48:39.110Z,52.20
2023-05-01T07:49:38.479Z,52.20
2023-05-01T07:50:38.547Z,52.41
2023-05-01T07:51:38.471Z,52.31
2023-05-01T07:52:38.427Z,52.48
2023-05-01T07:53:38.456Z,52.71
2023-05-01T07:54:38.380Z,52.71
2023-05-01T07:55:38.457Z,52.92
2023-05-01T07:56:38.414Z,53.02
2023-05-01T07:57:38.397Z,52.61
2023-05-01T07:58:38.394Z,52.31
2023-05-01T07:59:38.365Z,52.61
2023-05-01T08:00:38.415Z,52.41
2023-05-01T08:01:38.348Z,52.51
2023-05-01T08:02:38.354Z,52.28
2023-05-01T08:03:38.581Z,52.39
2023-05-01T08:04:38.373Z,52.81
2023-05-01T08:05:38.322Z,53.02
2023-05-01T08:06:38.459Z,53.42
2023-05-01T08:07:38.273Z,52.92
2023-05-01T08:08:38.331Z,52.71
2023-05-01T08:09:38.252Z,52.28
2023-05-01T08:10:38.337Z,52.28
2023-05-01T08:11:38.222Z,52.15
2023-05-01T08:12:38.250Z,51.45
2023-05-01T08:13:38.213Z,51.14
2023-05-01T08:14:38.256Z,51.14
2023-05-01T08:15:38.246Z,51.35
2023-05-01T08:16:38.245Z,51.22
2023-05-01T08:17:38.253Z,51.22
2023-05-01T08:18:38.204Z,51.32
2023-05-01T08:19:38.147Z,51.12
2023-05-01T08:20:38.225Z,51.02
2023-05-01T08:21:38.152Z,51.42
2023-05-01T08:22:38.163Z,51.53
2023-05-01T08:23:38.148Z,51.32
2023-05-01T08:24:38.146Z,51.42
2023-05-01T08:25:38.282Z,51.42
2023-05-01T08:26:38.100Z,51.83
2023-05-01T08:27:38.087Z,51.93
2023-05-01T08:28:38.084Z,51.81
2023-05-01T08:29:38.039Z,51.90
2023-05-01T08:30:38.064Z,51.20
2023-05-01T08:31:38.310Z,50.79
2023-05-01T08:32:38.063Z,50.79
2023-05-01T08:33:38.124Z,50.89
2023-05-01T08:34:37.998Z,50.49
2023-05-01T08:35:38.072Z,50.99
2023-05-01T08:36:38.057Z,51.20
2023-05-01T08:37:38.022Z,51.40
2023-05-01T08:38:38.046Z,51.40
2023-05-01T08:39:37.960Z,51.50
2023-05-01T08:40:38.103Z,51.70
2023-05-01T08:41:38.068Z,51.70
2023-05-01T08:42:38.011Z,51.70
2023-05-01T08:43:37.950Z,51.90
2023-05-01T08:44:37.973Z,51.90
2023-05-01T08:45:38.160Z,51.17
2023-05-01T08:46:37.915Z,50.87
2023-05-01T08:47:37.914Z,51.07
2023-05-01T08:48:37.923Z,50.97
2023-05-01T08:49:37.850Z,50.95
2023-05-01T08:50:37.926Z,51.05
2023-05-01T08:51:37.842Z,51.15
2023-05-01T08:52:37.844Z,50.95
2023-05-01T08:53:37.842Z,51.05
2023-05-01T08:54:37.902Z,50.74
2023-05-01T08:55:37.818Z,50.54
2023-05-01T08:56:37.821Z,50.12
2023-05-01T08:57:37.869Z,49.51
2023-05-01T08:58:37.828Z,49.51
2023-05-01T08:59:37.851Z,49.61
2023-05-01T09:00:37.758Z,49.71
2023-05-01T09:01:37.918Z,49.41
2023-05-01T09:02:37.834Z,49.61
2023-05-01T09:03:37.798Z,49.71
2023-05-01T09:04:37.735Z,49.91
2023-05-01T09:05:37.827Z,49.81
2023-05-01T09:06:37.725Z,50.34
2023-05-01T09:07:37.948Z,50.84
2023-05-01T09:08:37.696Z,50.82
2023-05-01T09:09:37.701Z,50.21
2023-05-01T09:10:37.680Z,50.01
2023-05-01T09:11:37.642Z,50.01
2023-05-01T09:12:37.618Z,50.12
2023-05-01T09:13:37.698Z,50.49
2023-05-01T09:14:37.632Z,50.09
2023-05-01T09:15:37.653Z,49.89
2023-05-01T09:16:37.654Z,49.66
2023-05-01T09:17:37.664Z,49.56
2023-05-01T09:18:37.628Z,49.16
2023-05-01T09:19:37.598Z,49.16
2023-05-01T09:20:37.544Z,49.05
2023-05-01T09:21:37.591Z,49.24
2023-05-01T09:22:37.554Z,49.13
2023-05-01T09:23:37.508Z,48.93
2023-05-01T09:24:37.530Z,48.93
2023-05-01T09:25:37.500Z,49.36
2023-05-01T09:26:37.521Z,49.79
2023-05-01T09:27:37.590Z,49.76
2023-05-01T09:28:37.494Z,49.87
2023-05-01T09:29:37.529Z,49.96
2023-05-01T09:30:37.478Z,49.87
2023-05-01T09:31:37.480Z,49.64
2023-05-01T09:32:37.511Z,49.64
2023-05-01T09:33:37.397Z,49.54
2023-05-01T09:34:37.387Z,49.94
2023-05-01T09:35:37.604Z,50.04
2023-05-01T09:36:37.382Z,49.74
2023-05-01T09:37:37.432Z,49.52
2023-05-01T09:38:37.381Z,48.81
2023-05-01T09:39:37.507Z,48.73
2023-05-01T09:40:37.413Z,48.53
2023-05-01T09:41:37.318Z,48.53
2023-05-01T09:42:37.434Z,48.63
2023-05-01T09:43:37.415Z,48.53
2023-05-01T09:44:37.291Z,48.83
2023-05-01T09:45:37.544Z,48.93
2023-05-01T09:46:37.344Z,49.04
2023-05-01T09:47:37.327Z,49.16
2023-05-01T09:48:37.273Z,49.33
2023-05-01T09:49:37.284Z,49.24
2023-05-01T09:50:37.298Z,49.33
2023-05-01T09:51:37.195Z,48.61
2023-05-01T09:52:37.196Z,48.41
2023-05-01T09:53:37.210Z,48.00
2023-05-01T09:54:37.224Z,47.88
2023-05-01T09:55:37.225Z,48.00
2023-05-01T09:56:37.258Z,48.10
2023-05-01T09:57:37.171Z,48.41
2023-05-01T09:58:37.149Z,48.21
2023-05-01T09:59:37.220Z,47.90
2023-05-01T10:00:37.156Z,47.90
2023-05-01T10:01:37.235Z,48.10
2023-05-01T10:02:37.210Z,48.63
2023-05-01T10:03:37.152Z,49.16
2023-05-01T10:04:37.098Z,49.26
2023-05-01T10:05:37.103Z,49.66
2023-05-01T10:06:37.251Z,49.96
2023-05-01T10:07:37.086Z,49.96
2023-05-01T10:08:37.100Z,50.16
2023-05-01T10:09:37.074Z,50.16
2023-05-01T10:10:37.081Z,49.56
2023-05-01T10:11:37.097Z,49.13
2023-05-01T10:12:37.053Z,47.92
2023-05-01T10:13:37.006Z,47.82
2023-05-01T10:14:36.986Z,47.90
2023-05-01T10:15:37.015Z,47.80
2023-05-01T10:16:37.073Z,47.70
2023-05-01T10:17:37.103Z,47.78
2023-05-01T10:18:37.012Z,46.97
2023-05-01T10:19:36.959Z,46.97
2023-05-01T10:20:36.959Z,46.97
2023-05-01T10:21:36.978Z,47.25
2023-05-01T10:22:36.931Z,46.85
2023-05-01T10:23:36.907Z,46.55
2023-05-01T10:24:36.906Z,46.55
2023-05-01T10:25:36.865Z,46.75
2023-05-01T10:26:36.854Z,46.62
2023-05-01T10:27:36.856Z,45.82
2023-05-01T10:28:36.834Z,46.12
2023-05-01T10:29:36.875Z,46.22
2023-05-01T10:30:37.034Z,45.82
2023-05-01T10:31:36.861Z,45.42
2023-05-01T10:32:36.878Z,45.92
2023-05-01T10:33:36.776Z,46.34
2023-05-01T10:34:36.799Z,46.65
2023-05-01T10:35:36.783Z,46.65
2023-05-01T10:36:36.761Z,46.75
2023-05-01T10:37:36.756Z,45.82
2023-05-01T10:38:36.746Z,45.92
2023-05-01T10:39:36.866Z,45.92
2023-05-01T10:40:37.118Z,46.00
2023-05-01T10:41:36.781Z,45.79
2023-05-01T10:42:36.723Z,45.21
2023-05-01T10:43:36.867Z,46.65
2023-05-01T10:44:36.713Z,45.94
2023-05-01T10:45:36.766Z,46.25
2023-05-01T10:46:36.687Z,46.22
2023-05-01T10:47:36.707Z,46.33
2023-05-01T10:48:36.741Z,45.72
2023-05-01T10:49:36.736Z,45.19
2023-05-01T10:50:36.678Z,45.29
2023-05-01T10:51:36.681Z,45.29
2023-05-01T10:52:36.894Z,45.00
2023-05-01T10:53:36.657Z,45.07
2023-05-01T10:54:36.567Z,44.27
2023-05-01T10:55:36.809Z,44.79
2023-05-01T10:56:36.561Z,45.17
2023-05-01T10:57:36.624Z,45.07
2023-05-01T10:58:36.569Z,45.07
2023-05-01T10:59:36.578Z,45.07
2023-05-01T11:00:36.512Z,44.67
2023-05-01T11:01:36.570Z,44.57
2023-05-01T11:02:36.625Z,44.97
2023-05-01T11:03:36.621Z,44.77
2023-05-01T11:04:36.526Z,44.75
2023-05-01T11:05:38.698Z,44.55
2023-05-01T11:06:36.695Z,44.85
2023-05-01T11:07:36.490Z,44.75
2023-05-01T11:08:36.462Z,44.65
2023-05-01T11:09:36.483Z,44.24
2023-05-01T11:10:36.395Z,44.45
2023-05-01T11:11:36.439Z,44.65
2023-05-01T11:12:36.415Z,44.45
2023-05-01T11:13:36.657Z,44.75
2023-05-01T11:14:36.417Z,44.23
2023-05-01T11:15:36.492Z,43.92
2023-05-01T11:16:36.545Z,43.12
2023-05-01T11:17:36.519Z,43.30
2023-05-01T11:18:36.385Z,43.50
2023-05-01T11:19:36.408Z,44.10
2023-05-01T11:20:36.463Z,43.80
2023-05-01T11:21:36.299Z,43.58
2023-05-01T11:22:36.341Z,43.10
2023-05-01T11:23:36.276Z,43.00
2023-05-01T11:24:36.284Z,44.20
2023-05-01T11:25:36.439Z,44.40
2023-05-01T11:26:36.232Z,44.20
2023-05-01T11:27:36.354Z,44.40
2023-05-01T11:28:36.228Z,44.08
2023-05-01T11:29:36.213Z,44.08
2023-05-01T11:30:36.231Z,43.86
2023-05-01T11:31:36.217Z,43.86
2023-05-01T11:32:36.218Z,43.94
2023-05-01T11:33:36.313Z,43.94
2023-05-01T11:34:36.170Z,43.14
2023-05-01T11:35:36.146Z,43.24
2023-05-01T11:36:36.165Z,43.72
2023-05-01T11:37:36.158Z,43.32
2023-05-01T11:38:36.175Z,43.22
2023-05-01T11:39:36.120Z,42.54
2023-05-01T11:40:37.110Z,43.34
2023-05-01T11:41:36.148Z,43.64
2023-05-01T11:42:36.143Z,44.44
2023-05-01T11:43:36.058Z,44.87
2023-05-01T11:44:36.058Z,44.14
2023-05-01T11:45:36.197Z,44.44
2023-05-01T11:46:36.243Z,44.74
2023-05-01T11:47:36.094Z,44.34
2023-05-01T11:48:36.127Z,44.44
2023-05-01T11:49:36.029Z,44.24
2023-05-01T11:50:36.193Z,44.32
2023-05-01T11:51:36.026Z,43.52
2023-05-01T11:52:36.013Z,43.92
2023-05-01T11:53:36.131Z,43.32
2023-05-01T11:54:35.973Z,43.12
2023-05-01T11:55:35.970Z,43.62
2023-05-01T11:56:36.074Z,43.19
2023-05-01T11:57:36.025Z,42.82
2023-05-01T11:58:35.958Z,43.32
2023-05-01T11:59:35.957Z,43.84
2023-05-01T12:00:35.992Z,43.14
2023-05-01T12:01:36.013Z,43.66
2023-05-01T12:02:35.949Z,43.44
2023-05-01T12:03:35.962Z,43.34
2023-05-01T12:04:35.929Z,42.44
2023-05-01T12:05:35.883Z,42.54
2023-05-01T12:06:35.887Z,42.61
2023-05-01T12:07:35.828Z,43.52
2023-05-01T12:08:35.942Z,43.42
2023-05-01T12:09:35.827Z,43.32
2023-05-01T12:10:35.833Z,43.32
2023-05-01T12:11:35.958Z,43.42
2023-05-01T12:12:35.848Z,42.82
2023-05-01T12:13:35.808Z,42.82
2023-05-01T12:14:35.783Z,43.54
2023-05-01T12:15:35.965Z,44.24
2023-05-01T12:16:35.783Z,44.34
2023-05-01T12:17:35.845Z,44.44
2023-05-01T12:18:35.739Z,44.14
2023-05-01T12:19:35.709Z,43.94
2023-05-01T12:20:35.719Z,43.82
2023-05-01T12:21:35.720Z,43.32
2023-05-01T12:22:35.693Z,43.62
2023-05-01T12:23:36.124Z,43.82
2023-05-01T12:24:35.724Z,43.72
2023-05-01T12:25:35.728Z,43.92
2023-05-01T12:26:35.701Z,43.90
2023-05-01T12:27:35.654Z,44.12
2023-05-01T12:28:35.641Z,44.00
2023-05-01T12:29:35.631Z,43.80
2023-05-01T12:30:35.664Z,43.50
2023-05-01T12:31:35.663Z,43.50
2023-05-01T12:32:35.639Z,43.10
2023-05-01T12:33:35.583Z,43.30
2023-05-01T12:34:35.680Z,42.69
2023-05-01T12:35:35.626Z,42.69
2023-05-01T12:36:35.591Z,42.30
2023-05-01T12:37:35.521Z,42.60
2023-05-01T12:38:35.525Z,42.10
2023-05-01T12:39:35.512Z,42.32
2023-05-01T12:40:35.629Z,42.72
2023-05-01T12:41:35.520Z,43.12
2023-05-01T12:42:35.521Z,43.92
2023-05-01T12:43:35.492Z,44.02
2023-05-01T12:44:35.651Z,44.22
2023-05-01T12:45:35.448Z,44.32
2023-05-01T12:46:35.596Z,44.24
2023-05-01T12:47:35.510Z,43.74
2023-05-01T12:48:35.480Z,43.84
2023-05-01T12:49:35.415Z,43.86
2023-05-01T12:50:35.431Z,44.16
2023-05-01T12:51:35.381Z,43.86
2023-05-01T12:52:35.426Z,43.96